Terminal Aerodrome Forecast
Issued by NWS Nashville, TN

Home | Current Version | Previous Version | Text Only | Print | Product List | Glossary On
Versions: 1 2 3 4 5 6 7 8 9 10 11 12 13 14 15
000
FTUS44 KOHX 240534
TAFBNA
TAF
KBNA 240534Z 2406/2506 16003KT P6SM BKN250
      TEMPO 2410/2412 5SM BR
     FM241900 20006KT P6SM VCSH SCT045 BKN080
     FM250000 20004KT P6SM FEW045 SCT130 BKN250=

USA.gov is the U.S. government's official web portal to all federal, state and local government web resources and services.